createdAt,value
2023-02-12T00:01:28.935Z,98606.69
2023-02-12T00:03:56.997Z,98608.94
2023-02-12T00:06:24.950Z,98612.19
2023-02-12T00:08:54.568Z,98607.59
2023-02-12T00:11:26.070Z,98608.66
2023-02-12T00:13:56.162Z,98600.56
2023-02-12T00:16:27.656Z,98593.34
2023-02-12T00:18:56.976Z,98609.31
2023-02-12T00:21:25.373Z,98615.31
2023-02-12T00:23:52.683Z,98607.97
2023-02-12T00:26:21.783Z,98607.59
2023-02-12T00:28:51.864Z,98612.19
2023-02-12T00:31:26.638Z,98614.91
2023-02-12T00:33:57.335Z,98617.03
2023-02-12T00:36:27.930Z,98622.22
2023-02-12T00:38:56.526Z,98625.84
2023-02-12T00:41:25.969Z,98632.00
2023-02-12T00:43:53.369Z,98627.59
2023-02-12T00:46:20.735Z,98629.22
2023-02-12T00:48:48.441Z,98639.44
2023-02-12T00:51:15.904Z,98633.13
2023-02-12T00:53:43.384Z,98636.09
2023-02-12T00:56:10.771Z,98627.72
2023-02-12T00:58:38.060Z,98631.22
2023-02-12T01:01:07.405Z,98627.88
2023-02-12T01:03:36.356Z,98621.91
2023-02-12T01:06:03.702Z,98626.78
2023-02-12T01:08:30.841Z,98626.75
2023-02-12T01:11:02.369Z,98635.13
2023-02-12T01:13:31.728Z,98638.34
2023-02-12T01:16:14.709Z,98635.72
2023-02-12T01:18:42.052Z,98641.00
2023-02-12T01:21:19.780Z,98638.44
2023-02-12T01:23:48.692Z,98638.94
2023-02-12T01:26:18.509Z,98636.81
2023-02-12T01:28:50.789Z,98637.88
2023-02-12T01:31:22.303Z,98642.44
2023-02-12T01:33:54.279Z,98644.22
2023-02-12T01:36:22.362Z,98648.16
2023-02-12T01:38:50.492Z,98650.53
2023-02-12T01:41:26.408Z,98657.47
2023-02-12T01:44:21.122Z,98658.03
2023-02-12T01:47:00.443Z,98655.50
2023-02-12T01:49:37.570Z,98657.59
2023-02-12T01:52:27.481Z,98656.66
2023-02-12T01:54:59.650Z,98660.22
2023-02-12T01:57:31.324Z,98665.09
2023-02-12T02:00:00.710Z,98668.91
2023-02-12T02:02:28.923Z,98670.59
2023-02-12T02:05:03.978Z,98669.41
2023-02-12T02:07:31.583Z,98666.50
2023-02-12T02:10:00.143Z,98673.94
2023-02-12T02:12:49.298Z,98667.75
2023-02-12T02:15:17.725Z,98676.47
2023-02-12T02:18:16.335Z,98684.63
2023-02-12T02:21:11.357Z,98688.91
2023-02-12T02:24:16.153Z,98684.75
2023-02-12T02:26:55.218Z,98697.16
2023-02-12T02:30:10.045Z,98689.19
2023-02-12T02:32:55.169Z,98691.22
2023-02-12T02:35:42.519Z,98705.06
2023-02-12T02:38:37.730Z,98708.00
2023-02-12T02:41:29.316Z,98699.47
2023-02-12T02:43:56.819Z,98707.34
2023-02-12T02:46:35.311Z,98711.69
2023-02-12T02:49:10.991Z,98713.13
2023-02-12T02:51:45.703Z,98710.63
2023-02-12T02:54:33.676Z,98700.06
2023-02-12T02:57:26.557Z,98702.75
2023-02-12T03:00:17.664Z,98710.91
2023-02-12T03:03:00.635Z,98715.94
2023-02-12T03:05:35.351Z,98714.59
2023-02-12T03:08:35.061Z,98719.44
2023-02-12T03:11:28.061Z,98715.97
2023-02-12T03:14:28.528Z,98723.09
2023-02-12T03:17:24.944Z,98729.16
2023-02-12T03:20:08.052Z,98733.09
2023-02-12T03:22:40.112Z,98740.41
2023-02-12T03:25:15.146Z,98736.09
2023-02-12T03:28:08.999Z,98747.56
2023-02-12T03:30:53.548Z,98736.00
2023-02-12T03:33:53.306Z,98738.75
2023-02-12T03:36:38.558Z,98739.88
2023-02-12T03:39:50.968Z,98748.00
2023-02-12T03:43:06.990Z,98761.34
2023-02-12T03:46:02.592Z,98755.66
2023-02-12T03:48:38.682Z,98777.47
2023-02-12T03:51:23.664Z,98788.72
2023-02-12T03:53:51.496Z,98794.78
2023-02-12T03:56:33.130Z,98791.47
2023-02-12T03:59:00.731Z,98791.06
2023-02-12T04:01:28.865Z,98806.56
2023-02-12T04:03:56.719Z,98814.00
2023-02-12T04:06:28.852Z,98805.94
2023-02-12T04:09:01.427Z,98807.31
2023-02-12T04:11:40.364Z,98816.19
2023-02-12T04:15:00.524Z,98816.66
2023-02-12T04:18:00.036Z,98816.22
2023-02-12T04:20:48.116Z,98801.63
2023-02-12T04:24:00.616Z,98809.25
2023-02-12T04:26:38.018Z,98815.97
2023-02-12T04:29:26.275Z,98817.25
2023-02-12T04:32:04.087Z,98824.13
2023-02-12T04:34:49.401Z,98832.41
2023-02-12T04:37:34.905Z,98820.88
2023-02-12T04:40:07.414Z,98833.97
2023-02-12T04:42:49.445Z,98837.00
2023-02-12T04:45:30.417Z,98835.63
2023-02-12T04:47:57.861Z,98828.03
2023-02-12T04:50:25.931Z,98840.22
2023-02-12T04:52:53.276Z,98838.19
2023-02-12T04:55:20.504Z,98840.44
2023-02-12T04:57:48.494Z,98844.31
2023-02-12T05:00:16.669Z,98851.88
2023-02-12T05:02:43.889Z,98856.75
2023-02-12T05:05:11.627Z,98852.44
2023-02-12T05:07:38.957Z,98860.94
2023-02-12T05:10:07.201Z,98861.53
2023-02-12T05:12:34.471Z,98867.06
2023-02-12T05:15:01.802Z,98874.78
2023-02-12T05:17:29.103Z,98875.13
2023-02-12T05:19:56.319Z,98885.63
2023-02-12T05:22:23.624Z,98881.13
2023-02-12T05:24:50.847Z,98888.03
2023-02-12T05:27:18.108Z,98891.16
2023-02-12T05:29:45.263Z,98893.72
2023-02-12T05:32:12.564Z,98901.09
2023-02-12T05:34:39.944Z,98905.97
2023-02-12T05:37:07.139Z,98909.06
2023-02-12T05:39:34.514Z,98921.69
2023-02-12T05:42:01.692Z,98923.31
2023-02-12T05:44:28.978Z,98932.16
2023-02-12T05:46:56.105Z,98930.56
2023-02-12T05:49:23.392Z,98930.38
2023-02-12T05:51:50.947Z,98931.78
2023-02-12T05:54:18.264Z,98943.47
2023-02-12T05:56:48.099Z,98946.63
2023-02-12T05:59:22.904Z,98945.25
2023-02-12T06:01:52.241Z,98952.94
2023-02-12T06:04:27.789Z,98958.53
2023-02-12T06:06:56.564Z,98959.59
2023-02-12T06:09:24.676Z,98965.91
2023-02-12T06:11:52.281Z,98958.03
2023-02-12T06:14:21.502Z,98964.72
2023-02-12T06:16:51.211Z,98969.41
2023-02-12T06:19:20.231Z,98975.47
2023-02-12T06:21:48.169Z,98978.88
2023-02-12T06:24:17.741Z,98979.72
2023-02-12T06:26:45.366Z,98983.75
2023-02-12T06:29:13.401Z,98982.56
2023-02-12T06:31:41.135Z,98986.66
2023-02-12T06:34:11.592Z,98996.16
2023-02-12T06:36:42.562Z,98990.31
2023-02-12T06:39:11.604Z,98999.13
2023-02-12T06:41:39.000Z,99000.56
2023-02-12T06:44:33.069Z,99008.78
2023-02-12T06:47:00.499Z,99005.41
2023-02-12T06:49:52.872Z,99013.91
2023-02-12T06:52:21.286Z,99013.50
2023-02-12T06:54:48.764Z,99016.63
2023-02-12T07:00:56.969Z,99024.13
2023-02-12T07:03:24.439Z,99027.81
2023-02-12T07:05:51.710Z,99027.03
2023-02-12T07:08:18.983Z,99025.91
2023-02-12T07:10:50.187Z,99032.59
2023-02-12T07:13:17.506Z,99032.50
2023-02-12T07:15:44.663Z,99038.34
2023-02-12T07:18:11.945Z,99038.56
2023-02-12T07:20:39.218Z,99045.84
2023-02-12T07:23:06.632Z,99044.75
2023-02-12T07:25:33.880Z,99051.47
2023-02-12T07:28:01.219Z,99043.94
2023-02-12T07:30:28.560Z,99055.09
2023-02-12T07:32:55.956Z,99056.13
2023-02-12T07:35:23.241Z,99062.22
2023-02-12T07:41:10.618Z,99073.31
2023-02-12T07:43:42.386Z,99071.34
2023-02-12T07:49:18.982Z,99087.63
2023-02-12T07:51:47.381Z,99088.56
2023-02-12T07:54:14.948Z,99087.59
2023-02-12T07:56:47.127Z,99089.38
2023-02-12T07:59:18.234Z,99094.47
2023-02-12T08:01:52.549Z,99094.19
2023-02-12T08:04:23.354Z,99097.41
2023-02-12T08:06:54.253Z,99089.53
2023-02-12T08:09:26.176Z,99091.81
2023-02-12T08:11:55.032Z,99098.22
2023-02-12T08:14:23.197Z,99093.72
2023-02-12T08:16:51.408Z,99095.81
2023-02-12T08:19:23.304Z,99089.88
2023-02-12T08:21:54.854Z,99103.22
2023-02-12T08:24:27.975Z,99112.97
2023-02-12T08:26:56.110Z,99115.84
2023-02-12T08:29:30.925Z,99124.88
2023-02-12T08:32:04.127Z,99120.00
2023-02-12T08:34:35.768Z,99122.97
2023-02-12T08:37:06.795Z,99118.75
2023-02-12T08:39:34.698Z,99117.16
2023-02-12T08:42:02.506Z,99121.03
2023-02-12T08:44:30.165Z,99119.97
2023-02-12T08:46:57.798Z,99128.66
2023-02-12T08:49:28.548Z,99126.06
2023-02-12T08:51:57.685Z,99132.56
2023-02-12T08:54:29.237Z,99124.47
2023-02-12T08:56:59.021Z,99131.41
2023-02-12T08:59:26.882Z,99132.94
2023-02-12T09:01:55.210Z,99134.38
2023-02-12T09:04:26.991Z,99136.88
2023-02-12T09:06:54.522Z,99148.41
2023-02-12T09:09:22.492Z,99155.63
2023-02-12T09:11:49.869Z,99157.13
2023-02-12T09:14:19.083Z,99156.31
2023-02-12T09:16:46.441Z,99160.28
2023-02-12T09:19:15.190Z,99161.78
2023-02-12T09:21:42.679Z,99158.03
2023-02-12T09:24:10.501Z,99149.81
2023-02-12T09:26:39.564Z,99152.44
2023-02-12T09:29:06.857Z,99157.19
2023-02-12T09:31:34.325Z,99169.03
2023-02-12T09:34:05.479Z,99167.84
2023-02-12T09:36:34.474Z,99173.72
2023-02-12T09:39:01.798Z,99175.53
2023-02-12T09:41:53.453Z,99184.34
2023-02-12T09:44:51.613Z,99187.88
2023-02-12T09:47:33.761Z,99202.25
2023-02-12T09:50:28.830Z,99196.53
2023-02-12T09:52:59.151Z,99201.53
2023-02-12T09:55:31.609Z,99201.75
2023-02-12T09:58:04.054Z,99213.16
2023-02-12T10:00:33.033Z,99215.56
2023-02-12T10:03:11.556Z,99214.38
2023-02-12T10:05:47.338Z,99214.22
2023-02-12T10:08:37.344Z,99221.47
2023-02-12T10:11:42.756Z,99222.47
2023-02-12T10:14:32.934Z,99229.13
2023-02-12T10:17:31.084Z,99222.41
2023-02-12T10:20:29.370Z,99225.66
2023-02-12T10:23:33.281Z,99225.28
2023-02-12T10:26:17.836Z,99229.78
2023-02-12T10:28:45.303Z,99233.09
2023-02-12T10:31:36.840Z,99235.91
2023-02-12T10:34:27.121Z,99242.38
2023-02-12T10:37:10.295Z,99243.97
2023-02-12T10:39:46.451Z,99224.88
2023-02-12T10:42:36.946Z,99230.06
2023-02-12T10:45:05.201Z,99229.56
2023-02-12T10:47:32.693Z,99232.78
2023-02-12T10:50:14.943Z,99219.47
2023-02-12T10:52:57.232Z,99227.75
2023-02-12T10:55:32.453Z,99217.41
2023-02-12T10:58:02.860Z,99212.88
2023-02-12T11:00:36.457Z,99207.25
2023-02-12T11:03:12.728Z,99216.69
2023-02-12T11:05:43.767Z,99221.44
2023-02-12T11:08:38.844Z,99228.03
2023-02-12T11:11:20.771Z,99224.88
2023-02-12T11:14:03.504Z,99220.50
2023-02-12T11:16:40.838Z,99225.34
2023-02-12T11:19:24.503Z,99223.59
2023-02-12T11:22:04.500Z,99229.34
2023-02-12T11:24:35.541Z,99233.25
2023-02-12T11:27:31.090Z,99248.59
2023-02-12T11:30:10.580Z,99236.53
2023-02-12T11:32:38.141Z,99226.59
2023-02-12T11:35:27.042Z,99235.56
2023-02-12T11:38:04.135Z,99230.63
2023-02-12T11:40:36.441Z,99234.00
2023-02-12T11:43:09.655Z,99229.31
2023-02-12T11:45:49.900Z,99230.22
2023-02-12T11:48:33.580Z,99222.81
2023-02-12T11:51:06.639Z,99224.41
2023-02-12T11:53:47.411Z,99225.31
2023-02-12T11:56:15.409Z,99227.28
2023-02-12T11:58:42.707Z,99231.41
2023-02-12T12:01:30.238Z,99232.47
2023-02-12T12:04:19.490Z,99222.34
2023-02-12T12:07:13.630Z,99228.28
2023-02-12T12:10:00.328Z,99221.19
2023-02-12T12:12:46.157Z,99227.34
2023-02-12T12:15:36.412Z,99230.97
2023-02-12T12:19:01.495Z,99224.53
2023-02-12T12:21:53.430Z,99223.22
2023-02-12T12:25:00.829Z,99222.41
2023-02-12T12:28:05.562Z,99212.59
2023-02-12T12:30:58.063Z,99209.72
2023-02-12T12:33:39.281Z,99218.34
2023-02-12T12:36:36.804Z,99225.03
2023-02-12T12:39:28.539Z,99224.72
2023-02-12T12:42:32.690Z,99220.84
2023-02-12T12:45:27.131Z,99216.31
2023-02-12T12:48:04.365Z,99217.81
2023-02-12T12:50:49.508Z,99211.66
2023-02-12T12:53:56.225Z,99211.25
2023-02-12T12:56:38.016Z,99205.16
2023-02-12T12:59:34.685Z,99217.75
2023-02-12T13:02:32.866Z,99213.16
2023-02-12T13:05:18.590Z,99219.25
2023-02-12T13:08:40.083Z,99224.09
2023-02-12T13:11:41.736Z,99225.06
2023-02-12T13:15:08.312Z,99235.72
2023-02-12T13:17:46.089Z,99234.53
2023-02-12T13:20:39.774Z,99224.97
2023-02-12T13:23:43.376Z,99227.75
2023-02-12T13:26:49.310Z,99232.31
2023-02-12T13:29:45.820Z,99227.63
2023-02-12T13:32:50.881Z,99230.75
2023-02-12T13:35:25.117Z,99226.13
2023-02-12T13:37:55.214Z,99229.31
2023-02-12T13:40:26.439Z,99232.94
2023-02-12T13:43:15.023Z,99230.13
2023-02-12T13:46:01.433Z,99232.09
2023-02-12T13:49:02.415Z,99235.66
2023-02-12T13:51:50.576Z,99245.78
2023-02-12T13:55:05.238Z,99241.94
2023-02-12T13:57:32.487Z,99235.84
2023-02-12T14:00:00.651Z,99245.56
2023-02-12T14:02:38.299Z,99238.91
2023-02-12T14:05:36.608Z,99238.06
2023-02-12T14:08:06.569Z,99232.22
2023-02-12T14:11:07.410Z,99234.63
2023-02-12T14:13:46.066Z,99229.16
2023-02-12T14:16:40.366Z,99231.75
2023-02-12T14:19:51.201Z,99237.81
2023-02-12T14:22:27.236Z,99241.84
2023-02-12T14:25:00.834Z,99246.88
2023-02-12T14:27:52.145Z,99237.56
2023-02-12T14:30:40.158Z,99239.31
2023-02-12T14:33:07.547Z,99241.94
2023-02-12T14:35:42.739Z,99240.09
2023-02-12T14:38:12.892Z,99245.31
2023-02-12T14:40:47.362Z,99241.50
2023-02-12T14:43:57.115Z,99242.53
2023-02-12T14:46:24.236Z,99244.44
2023-02-12T14:49:05.700Z,99244.41
2023-02-12T14:51:52.422Z,99246.97
2023-02-12T14:54:42.894Z,99242.09
2023-02-12T14:57:38.773Z,99250.94
2023-02-12T15:00:46.852Z,99248.69
2023-02-12T15:03:13.907Z,99249.53
2023-02-12T15:05:59.602Z,99244.63
2023-02-12T15:08:37.275Z,99246.81
2023-02-12T15:11:22.001Z,99248.78
2023-02-12T15:14:04.297Z,99252.22
2023-02-12T15:16:43.055Z,99255.09
2023-02-12T15:19:57.412Z,99259.53
2023-02-12T15:22:35.685Z,99249.47
2023-02-12T15:25:18.051Z,99253.41
2023-02-12T15:27:48.974Z,99255.75
2023-02-12T15:30:28.721Z,99258.84
2023-02-12T15:32:58.434Z,99248.66
2023-02-12T15:35:34.534Z,99263.97
2023-02-12T15:38:02.344Z,99260.91
2023-02-12T15:40:31.835Z,99256.84
2023-02-12T15:43:05.686Z,99254.22
2023-02-12T15:45:36.798Z,99254.41
2023-02-12T15:48:10.397Z,99255.59
2023-02-12T15:51:25.077Z,99260.66
2023-02-12T15:53:53.092Z,99263.47
2023-02-12T15:56:24.627Z,99264.66
2023-02-12T15:59:01.713Z,99263.63
2023-02-12T16:01:33.688Z,99265.59
2023-02-12T16:04:06.356Z,99269.91
2023-02-12T16:06:39.204Z,99279.78
2023-02-12T16:09:31.731Z,99275.28
2023-02-12T16:12:05.508Z,99278.44
2023-02-12T16:14:44.764Z,99283.06
2023-02-12T16:17:35.137Z,99277.00
2023-02-12T16:20:15.596Z,99284.84
2023-02-12T16:22:46.926Z,99284.84
2023-02-12T16:25:33.668Z,99287.59
2023-02-12T16:28:02.893Z,99287.13
2023-02-12T16:30:43.056Z,99293.00
2023-02-12T16:33:39.001Z,99291.84
2023-02-12T16:36:21.540Z,99288.03
2023-02-12T16:39:02.744Z,99291.72
2023-02-12T16:41:34.115Z,99287.72
2023-02-12T16:44:01.328Z,99287.69
2023-02-12T16:46:32.014Z,99286.03
2023-02-12T16:49:02.361Z,99290.63
2023-02-12T16:51:36.544Z,99291.50
2023-02-12T16:54:24.106Z,99291.22
2023-02-12T16:56:51.799Z,99287.03
2023-02-12T16:59:19.108Z,99293.28
2023-02-12T17:02:09.938Z,99288.28
2023-02-12T17:04:37.232Z,99293.81
2023-02-12T17:07:10.211Z,99294.44
2023-02-12T17:09:37.691Z,99297.56
2023-02-12T17:12:05.394Z,99290.09
2023-02-12T17:14:32.633Z,99283.56
2023-02-12T17:17:00.185Z,99288.69
2023-02-12T17:19:27.450Z,99275.47
2023-02-12T17:21:54.858Z,99279.16
2023-02-12T17:24:27.037Z,99281.28
2023-02-12T17:26:55.139Z,99283.44
2023-02-12T17:29:25.220Z,99284.13
2023-02-12T17:31:56.452Z,99280.56
2023-02-12T17:34:24.756Z,99284.34
2023-02-12T17:36:53.094Z,99283.72
2023-02-12T17:39:21.173Z,99291.41
2023-02-12T17:41:48.979Z,99290.94
2023-02-12T17:44:16.388Z,99285.69
2023-02-12T17:46:43.975Z,99288.81
2023-02-12T17:49:11.356Z,99289.78
2023-02-12T17:51:39.224Z,99290.78
2023-02-12T17:54:06.815Z,99298.94
2023-02-12T17:56:34.118Z,99301.53
2023-02-12T17:59:01.956Z,99302.69
2023-02-12T18:01:29.322Z,99299.06
2023-02-12T18:03:58.909Z,99304.44
2023-02-12T18:06:31.080Z,99304.69
2023-02-12T18:09:01.759Z,99303.66
2023-02-12T18:11:29.837Z,99294.19
2023-02-12T18:13:59.055Z,99286.75
2023-02-12T18:16:29.926Z,99301.78
2023-02-12T18:18:57.817Z,99289.25
2023-02-12T18:21:25.321Z,99294.09
2023-02-12T18:23:54.497Z,99291.81
2023-02-12T18:26:23.068Z,99294.38
2023-02-12T18:28:50.750Z,99293.88
2023-02-12T18:31:20.242Z,99290.53
2023-02-12T18:33:48.734Z,99298.16
2023-02-12T18:36:19.208Z,99294.53
2023-02-12T18:38:49.476Z,99288.63
2023-02-12T18:41:26.052Z,99284.06
2023-02-12T18:43:53.771Z,99289.22
2023-02-12T18:46:27.976Z,99290.91
2023-02-12T18:48:56.530Z,99291.22
2023-02-12T18:51:28.471Z,99290.88
2023-02-12T18:54:03.183Z,99287.00
2023-02-12T18:56:41.039Z,99289.44
2023-02-12T18:59:08.728Z,99289.41
2023-02-12T19:01:38.181Z,99297.28
2023-02-12T19:04:08.323Z,99282.91
2023-02-12T19:06:42.312Z,99286.03
2023-02-12T19:09:11.263Z,99287.56
2023-02-12T19:11:38.544Z,99285.03
2023-02-12T19:14:06.236Z,99280.81
2023-02-12T19:16:33.822Z,99292.47
2023-02-12T19:19:02.842Z,99287.56
2023-02-12T19:21:30.899Z,99290.13
2023-02-12T19:24:00.799Z,99286.88
2023-02-12T19:26:31.072Z,99285.06
2023-02-12T19:28:59.683Z,99285.63
2023-02-12T19:31:34.961Z,99274.41
2023-02-12T19:34:09.239Z,99274.44
2023-02-12T19:36:37.740Z,99279.06
2023-02-12T19:39:06.202Z,99271.75
2023-02-12T19:41:41.085Z,99275.06
2023-02-12T19:44:24.288Z,99273.66
2023-02-12T19:46:52.161Z,99279.22
2023-02-12T19:49:23.738Z,99274.81
2023-02-12T19:51:51.659Z,99278.44
2023-02-12T19:54:21.666Z,99264.75
2023-02-12T19:56:49.463Z,99275.34
2023-02-12T19:59:20.047Z,99274.88
2023-02-12T20:01:48.522Z,99272.56
2023-02-12T20:04:20.559Z,99273.22
2023-02-12T20:06:51.390Z,99277.97
2023-02-12T20:09:20.394Z,99270.81
2023-02-12T20:11:47.689Z,99272.09
2023-02-12T20:14:15.744Z,99274.53
2023-02-12T20:16:46.694Z,99270.13
2023-02-12T20:19:29.618Z,99268.97
2023-02-12T20:22:01.688Z,99274.69
2023-02-12T20:24:32.955Z,99277.44
2023-02-12T20:27:02.680Z,99282.97
2023-02-12T20:29:30.432Z,99282.53
2023-02-12T20:31:57.958Z,99279.09
2023-02-12T20:34:25.427Z,99287.25
2023-02-12T20:36:53.959Z,99285.13
2023-02-12T20:39:21.688Z,99287.06
2023-02-12T20:41:50.200Z,99289.84
2023-02-12T20:44:21.510Z,99297.00
2023-02-12T20:46:55.646Z,99296.88
2023-02-12T20:49:25.513Z,99300.28
2023-02-12T20:51:53.108Z,99299.47
2023-02-12T20:54:20.465Z,99298.34
2023-02-12T20:56:50.675Z,99301.09
2023-02-12T20:59:18.639Z,99303.22
2023-02-12T21:01:47.019Z,99298.16
2023-02-12T21:04:17.915Z,99309.38
2023-02-12T21:06:45.942Z,99306.75
2023-02-12T21:09:14.842Z,99303.16
2023-02-12T21:11:45.648Z,99310.00
2023-02-12T21:14:23.567Z,99305.47
2023-02-12T21:16:55.936Z,99307.22
2023-02-12T21:19:24.337Z,99304.78
2023-02-12T21:21:52.033Z,99306.59
2023-02-12T21:24:24.357Z,99305.78
2023-02-12T21:26:54.344Z,99304.97
2023-02-12T21:29:23.353Z,99302.53
2023-02-12T21:31:51.697Z,99306.75
2023-02-12T21:34:23.185Z,99300.91
2023-02-12T21:36:53.393Z,99309.06
2023-02-12T21:39:27.741Z,99307.44
2023-02-12T21:42:00.139Z,99298.31
2023-02-12T21:44:28.592Z,99305.66
2023-02-12T21:46:57.148Z,99305.31
2023-02-12T21:49:25.219Z,99310.06
2023-02-12T21:52:04.515Z,99319.50
2023-02-12T21:54:32.630Z,99315.75
2023-02-12T21:57:00.402Z,99311.69
2023-02-12T21:59:31.733Z,99310.41
2023-02-12T22:02:00.720Z,99314.94
2023-02-12T22:04:29.008Z,99315.09
2023-02-12T22:06:58.063Z,99319.34
2023-02-12T22:09:25.435Z,99319.50
2023-02-12T22:11:53.280Z,99321.41
2023-02-12T22:14:22.102Z,99324.66
2023-02-12T22:16:49.592Z,99329.19
2023-02-12T22:19:17.521Z,99332.47
2023-02-12T22:21:45.529Z,99327.88
2023-02-12T22:24:15.888Z,99322.34
2023-02-12T22:26:44.408Z,99319.88
2023-02-12T22:29:14.766Z,99322.19
2023-02-12T22:31:44.796Z,99315.81
2023-02-12T22:34:16.770Z,99315.19
2023-02-12T22:36:45.135Z,99310.59
2023-02-12T22:39:13.928Z,99314.97
2023-02-12T22:41:44.764Z,99317.88
2023-02-12T22:44:12.881Z,99317.25
2023-02-12T22:46:42.338Z,99314.50
2023-02-12T22:49:09.744Z,99328.72
2023-02-12T22:51:39.574Z,99333.09
2023-02-12T22:54:12.244Z,99321.81
2023-02-12T22:56:39.691Z,99325.09
2023-02-12T22:59:07.094Z,99322.16
2023-02-12T23:01:34.416Z,99319.66
2023-02-12T23:04:01.778Z,99319.88
2023-02-12T23:06:31.162Z,99317.94
2023-02-12T23:09:05.093Z,99310.28
2023-02-12T23:11:34.109Z,99309.97
2023-02-12T23:14:01.444Z,99313.41
2023-02-12T23:16:29.246Z,99311.13
2023-02-12T23:18:58.875Z,99314.88
2023-02-12T23:21:28.137Z,99314.22
2023-02-12T23:23:56.204Z,99320.44
2023-02-12T23:26:23.787Z,99312.44
2023-02-12T23:28:51.509Z,99316.03
2023-02-12T23:31:20.250Z,99317.66
2023-02-12T23:33:47.794Z,99311.13
2023-02-12T23:36:15.668Z,99313.41
2023-02-12T23:38:42.898Z,99317.13
2023-02-12T23:41:10.091Z,99310.97
2023-02-12T23:43:37.305Z,99321.41
2023-02-12T23:46:04.729Z,99320.75
2023-02-12T23:48:31.902Z,99319.94
2023-02-12T23:50:59.615Z,99305.22
2023-02-12T23:53:26.904Z,99305.06
2023-02-12T23:55:54.131Z,99311.59
2023-02-12T23:58:21.304Z,99303.94
